Time;durP1;ratioP1;P1;durP2;ratioP2;P2;SDS_P1;SDS_P2;PMS_P1;PMS_P2;Temp;Humidity;BMP_temperature;BMP_pressure;BME280_temperature;BME280_humidity;BME280_pressure;Samples;Min_cycle;Max_cycle;Signal;HPM_P1;HPM_P2
2022/07/17 00:01:33;;;;;;;3.47;0.98;;;12.50;99.70;;;;;;4993349;28;20255;-86
2022/07/17 00:03:59;;;;;;;3.80;1.00;;;12.50;99.90;;;;;;4992876;28;20522;-88
2022/07/17 00:06:25;;;;;;;3.28;0.95;;;12.40;99.90;;;;;;4996921;28;20242;-86
2022/07/17 00:08:50;;;;;;;7.57;1.20;;;12.40;99.90;;;;;;4996151;28;20526;-87
2022/07/17 00:11:16;;;;;;;3.40;1.20;;;12.30;99.90;;;;;;4997925;28;20556;-86
2022/07/17 00:13:42;;;;;;;5.68;1.10;;;12.40;99.90;;;;;;4996114;28;20179;-89
2022/07/17 00:16:08;;;;;;;3.00;1.25;;;12.30;99.90;;;;;;4996692;28;20184;-86
2022/07/17 00:18:34;;;;;;;3.75;1.00;;;12.40;99.90;;;;;;4996459;28;20258;-87
2022/07/17 00:21:00;;;;;;;2.42;1.00;;;12.30;99.90;;;;;;4996206;28;20603;-87
2022/07/17 00:23:26;;;;;;;2.95;0.98;;;12.30;99.90;;;;;;4996532;28;20196;-87
2022/07/17 00:25:51;;;;;;;2.08;1.10;;;12.30;99.90;;;;;;4996445;28;20413;-87
2022/07/17 00:28:17;;;;;;;3.95;1.00;;;12.20;99.90;;;;;;4996271;28;20176;-86
2022/07/17 00:30:43;;;;;;;5.32;1.00;;;12.10;99.90;;;;;;4996227;28;20307;-87
2022/07/17 00:33:08;;;;;;;4.22;1.08;;;12.20;99.90;;;;;;4996282;28;20187;-87
2022/07/17 00:35:34;;;;;;;4.00;1.20;;;12.30;99.90;;;;;;4996041;28;20413;-87
2022/07/17 00:38:00;;;;;;;8.02;1.20;;;12.20;99.90;;;;;;4996135;28;20172;-86
2022/07/17 00:40:28;;;;;;;2.80;1.00;;;12.20;99.90;;;;;;4996226;28;20183;-87
2022/07/17 00:42:53;;;;;;;4.50;1.00;;;12.20;99.90;;;;;;4996171;28;20172;-88
2022/07/17 00:45:24;;;;;;;2.35;0.80;;;12.20;99.90;;;;;;4996130;28;20188;-87
2022/07/17 00:47:54;;;;;;;6.90;1.20;;;12.20;99.90;;;;;;4995751;28;20589;-87
2022/07/17 00:50:23;;;;;;;2.70;1.02;;;12.10;99.90;;;;;;4997044;28;20529;-87
2022/07/17 00:52:49;;;;;;;6.68;1.50;;;12.10;99.90;;;;;;4995933;28;20258;-87
2022/07/17 00:55:16;;;;;;;2.20;1.10;;;12.00;99.90;;;;;;4995880;28;20274;-87
2022/07/17 00:57:44;;;;;;;2.38;1.00;;;11.90;99.90;;;;;;4997185;28;20187;-88
2022/07/17 01:00:12;;;;;;;3.05;0.90;;;11.80;99.90;;;;;;4995542;28;20555;-87
2022/07/17 01:02:38;;;;;;;5.03;1.13;;;11.70;99.90;;;;;;4996017;28;20250;-88
2022/07/17 01:05:05;;;;;;;7.07;1.13;;;11.70;99.90;;;;;;4995692;28;20583;-87
2022/07/17 01:07:31;;;;;;;2.78;0.93;;;11.70;99.90;;;;;;4997152;28;20203;-87
2022/07/17 01:09:57;;;;;;;3.78;1.10;;;11.60;99.90;;;;;;4995847;28;20555;-87
2022/07/17 01:12:24;;;;;;;3.40;1.27;;;11.70;99.90;;;;;;4997058;28;20172;-88
2022/07/17 01:14:51;;;;;;;3.67;1.20;;;11.80;99.90;;;;;;4995643;28;20274;-88
2022/07/17 01:17:17;;;;;;;5.65;1.20;;;11.80;99.90;;;;;;4994882;28;20176;-88
2022/07/17 01:19:43;;;;;;;2.35;1.10;;;11.80;99.90;;;;;;4995499;28;20238;-87
2022/07/17 01:22:08;;;;;;;3.88;1.08;;;11.80;99.90;;;;;;4995436;28;20180;-87
2022/07/17 01:24:38;;;;;;;5.97;1.25;;;11.80;99.90;;;;;;4996719;28;20180;-88
2022/07/17 01:27:03;;;;;;;3.47;1.15;;;11.90;99.90;;;;;;4996351;28;20172;-88
2022/07/17 01:29:29;;;;;;;6.00;1.08;;;11.80;99.90;;;;;;4995106;28;20212;-87
2022/07/17 01:31:55;;;;;;;4.63;1.20;;;11.80;99.90;;;;;;4995379;28;20188;-87
2022/07/17 01:34:21;;;;;;;4.35;1.08;;;11.90;99.90;;;;;;4996351;28;20168;-88
2022/07/17 01:36:46;;;;;;;8.48;1.10;;;11.90;99.90;;;;;;4995394;28;20505;-88
2022/07/17 01:39:12;;;;;;;3.05;1.20;;;11.90;99.90;;;;;;4994613;28;20180;-88
2022/07/17 01:41:39;;;;;;;3.30;1.20;;;11.90;99.90;;;;;;4993236;28;20282;-88
2022/07/17 01:44:07;;;;;;;4.20;1.20;;;11.90;99.90;;;;;;4991839;28;20188;-86
2022/07/17 01:46:33;;;;;;;3.53;1.00;;;11.80;99.90;;;;;;4983276;28;20220;-88
2022/07/17 01:49:00;;;;;;;3.83;1.23;;;11.70;99.90;;;;;;4994759;28;20230;-86
2022/07/17 01:51:27;;;;;;;7.35;1.48;;;11.60;99.90;;;;;;4994628;28;20294;-88
2022/07/17 01:53:53;;;;;;;4.40;0.93;;;11.60;99.90;;;;;;4994820;28;20192;-88
2022/07/17 01:56:18;;;;;;;4.05;1.02;;;11.60;99.90;;;;;;4994883;28;20230;-88
2022/07/17 01:58:44;;;;;;;2.15;0.90;;;11.50;99.90;;;;;;4994825;28;20263;-87
2022/07/17 02:01:10;;;;;;;3.83;1.98;;;11.50;99.90;;;;;;4996118;28;20501;-87
2022/07/17 02:03:36;;;;;;;3.80;1.00;;;11.50;99.90;;;;;;4994667;28;20509;-86
2022/07/17 02:06:01;;;;;;;5.30;1.52;;;11.60;99.90;;;;;;4995605;28;20176;-88
2022/07/17 02:08:27;;;;;;;3.28;1.40;;;11.60;99.90;;;;;;4995850;28;20251;-89
2022/07/17 02:10:53;;;;;;;3.58;0.93;;;11.50;99.90;;;;;;4995789;28;20211;-89
2022/07/17 02:13:18;;;;;;;2.85;1.20;;;11.40;99.90;;;;;;4995798;28;20176;-88
2022/07/17 02:15:44;;;;;;;2.95;1.10;;;11.30;99.90;;;;;;4994649;28;20500;-88
2022/07/17 02:18:09;;;;;;;2.53;1.20;;;11.30;99.90;;;;;;4994580;28;20522;-88
2022/07/17 02:20:35;;;;;;;3.58;1.38;;;11.30;99.90;;;;;;4994565;28;20286;-89
2022/07/17 02:23:01;;;;;;;4.35;1.05;;;11.30;99.90;;;;;;4994548;28;20175;-88
2022/07/17 02:25:26;;;;;;;4.43;1.38;;;11.30;99.90;;;;;;4994707;28;20507;-88
2022/07/17 02:27:52;;;;;;;1.92;0.80;;;11.30;99.90;;;;;;4994581;28;20676;-88
2022/07/17 02:30:18;;;;;;;4.20;1.02;;;11.30;99.90;;;;;;4995683;28;20218;-87
2022/07/17 02:32:45;;;;;;;3.20;1.05;;;11.30;99.90;;;;;;4994549;28;20504;-88
2022/07/17 02:35:12;;;;;;;2.55;1.10;;;11.30;99.90;;;;;;4986290;28;20189;-88
2022/07/17 02:37:38;;;;;;;2.60;1.45;;;11.30;99.90;;;;;;4982675;28;20183;-88
2022/07/17 02:40:05;;;;;;;2.35;1.00;;;11.30;99.90;;;;;;5013861;28;20183;-88
2022/07/17 02:42:32;;;;;;;5.30;1.25;;;11.20;99.90;;;;;;5013764;28;20262;-87
2022/07/17 02:44:59;;;;;;;2.17;0.98;;;11.20;99.90;;;;;;5013686;28;20621;-88
2022/07/17 02:47:32;;;;;;;2.70;1.17;;;11.20;99.90;;;;;;5013950;28;20185;-88
2022/07/17 02:50:01;;;;;;;3.35;1.00;;;11.20;99.90;;;;;;5013586;28;20261;-88
2022/07/17 02:52:27;;;;;;;7.28;1.00;;;11.20;99.90;;;;;;5013708;28;20183;-88
2022/07/17 02:54:53;;;;;;;3.40;1.02;;;11.20;99.90;;;;;;5013667;28;20290;-88
2022/07/17 02:57:18;;;;;;;2.47;0.93;;;11.10;99.90;;;;;;5013725;28;20582;-88
2022/07/17 02:59:45;;;;;;;3.40;1.13;;;11.10;99.90;;;;;;5013585;28;20179;-88
2022/07/17 03:02:18;;;;;;;3.47;1.10;;;11.10;99.90;;;;;;5013705;28;20190;-87
2022/07/17 03:04:43;;;;;;;3.60;1.10;;;11.10;99.90;;;;;;5013159;28;20179;-88
2022/07/17 03:07:09;;;;;;;4.03;1.00;;;11.10;99.90;;;;;;5013390;28;20187;-88
2022/07/17 03:09:36;;;;;;;5.18;1.13;;;11.10;99.90;;;;;;4993782;28;20362;-87
2022/07/17 03:12:02;;;;;;;3.25;1.20;;;11.10;99.90;;;;;;4993887;28;20270;-89
2022/07/17 03:14:28;;;;;;;5.57;1.40;;;11.10;99.90;;;;;;4993994;28;20700;-88
2022/07/17 03:16:53;;;;;;;4.70;1.23;;;11.10;99.90;;;;;;4993721;28;20274;-89
2022/07/17 03:19:19;;;;;;;2.35;0.93;;;11.00;99.90;;;;;;4993996;28;20187;-88
2022/07/17 03:21:46;;;;;;;7.25;1.70;;;11.10;99.90;;;;;;4994688;28;20242;-88
2022/07/17 03:24:12;;;;;;;3.15;1.20;;;11.00;99.90;;;;;;4993948;28;20342;-89
2022/07/17 03:26:38;;;;;;;6.05;1.45;;;11.00;99.90;;;;;;4993719;28;20179;-88
2022/07/17 03:29:04;;;;;;;3.67;1.17;;;10.90;99.90;;;;;;4993785;28;20172;-89
2022/07/17 03:31:29;;;;;;;3.38;1.10;;;10.90;99.90;;;;;;4995189;28;20216;-88
2022/07/17 03:33:55;;;;;;;4.80;1.30;;;10.80;99.90;;;;;;4993652;28;20207;-88
2022/07/17 03:36:21;;;;;;;2.85;0.98;;;10.80;99.90;;;;;;4993441;28;20184;-87
2022/07/17 03:38:46;;;;;;;5.53;1.25;;;10.80;99.90;;;;;;5006340;28;20748;-88
2022/07/17 03:41:13;;;;;;;4.03;1.17;;;10.80;99.90;;;;;;5015502;28;20613;-88
2022/07/17 03:43:39;;;;;;;5.88;1.27;;;10.80;99.90;;;;;;5016990;28;20229;-87
2022/07/17 03:46:04;;;;;;;6.57;1.40;;;10.80;99.90;;;;;;5017245;28;20210;-88
2022/07/17 03:48:30;;;;;;;3.15;1.23;;;10.80;99.90;;;;;;5016966;28;20546;-88
2022/07/17 03:50:56;;;;;;;3.92;1.50;;;10.80;99.90;;;;;;5016488;28;20213;-86
2022/07/17 03:53:21;;;;;;;5.28;1.35;;;10.90;99.90;;;;;;5018128;28;20642;-87
2022/07/17 03:55:47;;;;;;;3.58;1.30;;;10.80;99.90;;;;;;5016911;28;20179;-89
2022/07/17 03:58:13;;;;;;;4.35;1.40;;;10.80;99.90;;;;;;5017052;28;20690;-88
2022/07/17 04:00:38;;;;;;;4.75;1.15;;;10.80;99.90;;;;;;5017080;28;20175;-87
2022/07/17 04:03:05;;;;;;;2.80;1.20;;;10.90;99.90;;;;;;5016839;28;20183;-87
2022/07/17 04:05:30;;;;;;;6.50;1.50;;;10.90;99.90;;;;;;5016417;28;20509;-87
2022/07/17 04:07:56;;;;;;;3.55;1.52;;;11.00;99.90;;;;;;5010727;28;20226;-88
2022/07/17 04:10:22;;;;;;;3.65;1.40;;;11.00;99.90;;;;;;4998274;28;20207;-88
2022/07/17 04:12:49;;;;;;;3.70;1.05;;;11.00;99.90;;;;;;4998150;28;20203;-88
2022/07/17 04:15:48;;;;;;;4.55;1.35;;;11.00;99.90;;;;;;4996907;28;20563;-88
2022/07/17 04:18:00;;;;;;;5.95;1.45;;;11.10;99.90;;;;;;4997893;28;20187;-87
2022/07/17 04:20:26;;;;;;;5.50;1.30;;;11.10;99.90;;;;;;4997774;28;20200;-88
2022/07/17 04:22:52;;;;;;;5.75;1.30;;;11.20;99.90;;;;;;4996883;28;20218;-88
2022/07/17 04:25:17;;;;;;;4.90;1.33;;;11.20;99.90;;;;;;4996315;28;20176;-87
2022/07/17 04:27:43;;;;;;;7.38;1.63;;;11.20;99.90;;;;;;4997570;28;20175;-88
2022/07/17 04:30:09;;;;;;;4.72;1.40;;;11.30;99.90;;;;;;4991961;28;20208;-86
2022/07/17 04:32:36;;;;;;;3.10;1.17;;;11.40;99.90;;;;;;4976852;28;20219;-87
2022/07/17 04:35:01;;;;;;;7.18;1.33;;;11.50;99.90;;;;;;4976166;28;20532;-87
2022/07/17 04:37:27;;;;;;;6.10;1.75;;;11.50;99.90;;;;;;4978271;28;20180;-87
2022/07/17 04:39:52;;;;;;;3.25;1.35;;;11.60;99.90;;;;;;4996139;28;20176;-88
2022/07/17 04:42:18;;;;;;;4.50;1.67;;;11.70;99.90;;;;;;4997229;28;20183;-88
2022/07/17 04:44:44;;;;;;;3.85;1.25;;;11.80;99.90;;;;;;4997104;28;20164;-87
2022/07/17 04:47:09;;;;;;;7.13;1.55;;;11.90;99.90;;;;;;4997148;28;20327;-88
2022/07/17 04:49:35;;;;;;;4.78;1.60;;;11.90;99.90;;;;;;4995866;28;20717;-89
2022/07/17 04:52:00;;;;;;;10.40;1.50;;;12.00;99.90;;;;;;4994642;28;20246;-88
2022/07/17 04:54:26;;;;;;;5.50;1.35;;;12.10;99.90;;;;;;4995856;28;20179;-89
2022/07/17 04:56:52;;;;;;;7.65;1.40;;;12.10;99.90;;;;;;4995879;28;20187;-90
2022/07/17 04:59:17;;;;;;;6.35;1.77;;;12.30;99.90;;;;;;4997140;28;20184;-90
2022/07/17 05:01:44;;;;;;;8.10;1.42;;;12.40;99.90;;;;;;4995056;28;20639;-90
2022/07/17 05:04:10;;;;;;;6.40;1.55;;;12.50;99.90;;;;;;4996616;28;20172;-91
2022/07/17 05:06:35;;;;;;;6.90;1.25;;;12.60;99.90;;;;;;4996344;28;20187;-90
2022/07/17 05:09:01;;;;;;;5.13;1.55;;;12.60;99.90;;;;;;4997652;28;20175;-90
2022/07/17 05:11:27;;;;;;;3.85;1.40;;;12.70;99.90;;;;;;4996378;28;20215;-91
2022/07/17 05:13:53;;;;;;;7.70;1.70;;;12.70;99.90;;;;;;4995720;28;20269;-89
2022/07/17 05:16:18;;;;;;;2.58;1.58;;;12.70;99.90;;;;;;4996777;28;20176;-89
2022/07/17 05:18:44;;;;;;;8.55;1.90;;;12.70;99.90;;;;;;4995900;28;20286;-89
2022/07/17 05:21:09;;;;;;;6.82;1.50;;;12.80;99.90;;;;;;4995467;28;20183;-89
2022/07/17 05:23:35;;;;;;;6.97;1.60;;;12.90;99.90;;;;;;4995870;28;20188;-89
2022/07/17 05:26:02;;;;;;;4.85;1.48;;;13.00;99.90;;;;;;4995653;28;20174;-88
2022/07/17 05:28:27;;;;;;;4.20;1.50;;;13.10;99.90;;;;;;4995181;28;20206;-88
2022/07/17 05:30:53;;;;;;;4.25;1.30;;;13.20;99.90;;;;;;4995173;28;20649;-88
2022/07/17 05:33:19;;;;;;;7.30;1.63;;;13.30;99.90;;;;;;4994962;28;20634;-88
2022/07/17 05:35:44;;;;;;;8.40;1.50;;;13.40;99.90;;;;;;4994569;28;20185;-88
2022/07/17 05:38:11;;;;;;;8.73;1.80;;;13.50;99.90;;;;;;4994198;28;20196;-88
2022/07/17 05:40:36;;;;;;;9.57;1.70;;;13.50;99.90;;;;;;4993834;28;20189;-89
2022/07/17 05:43:03;;;;;;;5.40;1.58;;;13.60;99.90;;;;;;4996486;28;20179;-89
2022/07/17 05:45:29;;;;;;;6.28;1.55;;;13.60;99.90;;;;;;4995301;28;20199;-87
2022/07/17 05:47:54;;;;;;;3.33;1.42;;;13.70;99.90;;;;;;4994828;28;20666;-86
2022/07/17 05:50:20;;;;;;;4.82;1.52;;;13.70;99.90;;;;;;4996327;28;20200;-88
2022/07/17 05:52:45;;;;;;;4.63;1.20;;;13.80;99.90;;;;;;4994909;28;20242;-87
2022/07/17 05:55:11;;;;;;;6.72;1.55;;;13.80;99.90;;;;;;4996064;28;20191;-87
2022/07/17 05:57:40;;;;;;;9.85;1.50;;;13.90;99.90;;;;;;4996247;28;20637;-89
2022/07/17 06:00:06;;;;;;;3.70;1.10;;;14.00;99.90;;;;;;4995021;28;20223;-87
2022/07/17 06:02:32;;;;;;;4.45;1.23;;;14.10;99.90;;;;;;4995396;28;20263;-87
2022/07/17 06:04:57;;;;;;;6.30;1.48;;;14.20;99.90;;;;;;4982055;28;20271;-87
2022/07/17 06:07:23;;;;;;;8.77;1.80;;;14.30;99.90;;;;;;4975532;28;20600;-87
2022/07/17 06:09:49;;;;;;;7.32;1.58;;;14.40;99.90;;;;;;4975127;28;20200;-87
2022/07/17 06:12:14;;;;;;;3.00;1.10;;;14.50;99.90;;;;;;4976608;28;20176;-87
2022/07/17 06:14:40;;;;;;;6.40;1.60;;;14.70;99.90;;;;;;4975065;28;20607;-89
2022/07/17 06:17:05;;;;;;;3.75;1.15;;;14.80;99.90;;;;;;4976357;28;20188;-89
2022/07/17 06:19:31;;;;;;;4.70;1.33;;;14.90;99.90;;;;;;4978971;28;20204;-87
2022/07/17 06:21:57;;;;;;;6.22;1.42;;;14.90;99.90;;;;;;4987470;28;20176;-87
2022/07/17 06:24:23;;;;;;;6.75;1.20;;;14.90;99.90;;;;;;4976242;28;20239;-88
2022/07/17 06:26:50;;;;;;;4.72;1.10;;;15.00;99.90;;;;;;4991335;28;20631;-89
2022/07/17 06:29:16;;;;;;;4.63;0.93;;;15.00;99.90;;;;;;4974884;28;20219;-87
2022/07/17 06:31:41;;;;;;;4.72;1.27;;;15.10;99.90;;;;;;4992756;28;20592;-87
2022/07/17 06:34:07;;;;;;;4.90;1.17;;;15.10;99.90;;;;;;4994225;28;20180;-87
2022/07/17 06:36:33;;;;;;;10.30;1.40;;;15.20;99.90;;;;;;4995666;28;20164;-87
2022/07/17 06:38:58;;;;;;;4.90;1.45;;;15.20;99.90;;;;;;4994231;28;20646;-89
2022/07/17 06:41:24;;;;;;;3.88;1.27;;;15.20;99.90;;;;;;4993958;28;20187;-86
2022/07/17 06:43:51;;;;;;;6.30;1.58;;;15.20;99.90;;;;;;4994642;28;20179;-89
2022/07/17 06:46:17;;;;;;;4.53;1.30;;;15.30;99.90;;;;;;4993506;28;20183;-86
2022/07/17 06:48:43;;;;;;;8.93;1.77;;;15.40;99.90;;;;;;4995395;28;20232;-88
2022/07/17 06:51:09;;;;;;;3.03;1.05;;;15.40;99.90;;;;;;4994179;28;20219;-89
2022/07/17 06:53:36;;;;;;;5.63;1.40;;;15.50;99.90;;;;;;4994196;28;20180;-89
2022/07/17 06:56:02;;;;;;;7.07;1.58;;;15.50;99.90;;;;;;4994164;28;20234;-88
2022/07/17 06:58:28;;;;;;;3.75;0.90;;;15.40;99.90;;;;;;4994977;28;20176;-86
2022/07/17 07:00:53;;;;;;;5.10;1.48;;;15.50;99.90;;;;;;4994340;28;20215;-86
2022/07/17 07:03:20;;;;;;;4.07;1.30;;;15.60;99.90;;;;;;4994753;28;20203;-87
2022/07/17 07:05:46;;;;;;;3.83;1.15;;;15.80;99.60;;;;;;4994756;28;20190;-87
2022/07/17 07:08:11;;;;;;;9.55;1.58;;;15.80;99.90;;;;;;5011994;28;20179;-87
2022/07/17 07:10:38;;;;;;;7.97;1.35;;;15.80;99.40;;;;;;5013045;28;20211;-86
2022/07/17 07:13:04;;;;;;;5.05;1.15;;;15.90;99.90;;;;;;5012977;28;20179;-88
2022/07/17 07:15:30;;;;;;;5.10;1.33;;;16.00;99.80;;;;;;5013885;28;20217;-86
2022/07/17 07:17:56;;;;;;;6.15;1.73;;;16.20;99.80;;;;;;4995731;28;20569;-88
2022/07/17 07:20:21;;;;;;;6.13;1.17;;;16.30;98.90;;;;;;4994132;28;20182;-85
2022/07/17 07:22:47;;;;;;;6.90;1.35;;;16.50;98.50;;;;;;4994009;28;20235;-85
2022/07/17 07:25:14;;;;;;;6.28;1.50;;;16.60;97.90;;;;;;4992955;28;20188;-88
2022/07/17 07:27:40;;;;;;;4.03;1.27;;;16.70;97.80;;;;;;4993538;28;20179;-88
2022/07/17 07:30:09;;;;;;;4.80;1.20;;;16.90;97.70;;;;;;4994621;28;20638;-88
2022/07/17 07:32:39;;;;;;;4.65;1.25;;;17.10;98.00;;;;;;4993468;28;20179;-87
2022/07/17 07:35:06;;;;;;;3.33;1.38;;;17.20;97.00;;;;;;4992164;28;20203;-86
2022/07/17 07:37:32;;;;;;;5.60;1.67;;;17.30;97.50;;;;;;4991807;28;20215;-86
2022/07/17 07:39:57;;;;;;;9.77;1.23;;;17.50;96.80;;;;;;4994933;28;20222;-87
2022/07/17 07:42:23;;;;;;;4.55;1.23;;;17.80;96.10;;;;;;5013021;28;20202;-89
2022/07/17 07:44:49;;;;;;;4.78;1.30;;;17.90;95.80;;;;;;5011697;28;20198;-90
2022/07/17 07:47:14;;;;;;;7.93;1.80;;;17.90;96.20;;;;;;5013229;28;20634;-88
2022/07/17 07:49:40;;;;;;;5.53;1.30;;;17.70;95.80;;;;;;5011786;28;20266;-86
2022/07/17 07:52:07;;;;;;;5.50;1.13;;;17.70;96.10;;;;;;5012255;28;20202;-87
2022/07/17 07:54:32;;;;;;;5.80;1.10;;;17.80;95.20;;;;;;5012654;28;20186;-90
2022/07/17 07:56:59;;;;;;;6.32;1.40;;;18.00;95.20;;;;;;5013000;28;20179;-90
2022/07/17 07:59:24;;;;;;;5.60;1.33;;;18.20;95.20;;;;;;5012787;28;20606;-88
2022/07/17 08:01:50;;;;;;;4.40;1.13;;;18.30;94.80;;;;;;5012656;28;20183;-88
2022/07/17 08:04:16;;;;;;;4.20;1.20;;;18.60;94.70;;;;;;5014012;28;20625;-89
2022/07/17 08:06:42;;;;;;;5.50;1.13;;;18.80;94.60;;;;;;5012651;28;20176;-89
2022/07/17 08:09:07;;;;;;;4.35;1.02;;;18.80;93.60;;;;;;5014254;28;20204;-89
2022/07/17 08:11:33;;;;;;;4.22;1.38;;;18.60;93.70;;;;;;4997603;28;20274;-88
2022/07/17 08:13:59;;;;;;;4.60;1.05;;;18.30;93.90;;;;;;4992992;28;20176;-88
2022/07/17 08:16:25;;;;;;;6.95;1.40;;;18.20;95.00;;;;;;4993008;28;20263;-88
2022/07/17 08:18:50;;;;;;;6.20;1.38;;;18.40;95.30;;;;;;4994379;28;20246;-91
2022/07/17 08:21:16;;;;;;;5.45;1.17;;;18.50;94.10;;;;;;4994434;28;20182;-87
2022/07/17 08:23:42;;;;;;;7.15;1.40;;;18.40;93.90;;;;;;4993972;28;20204;-89
2022/07/17 08:26:08;;;;;;;3.85;1.67;;;18.20;94.10;;;;;;4994255;28;20190;-87
2022/07/17 08:28:33;;;;;;;6.35;1.20;;;18.20;94.30;;;;;;4996595;28;20180;-88
2022/07/17 08:30:59;;;;;;;3.88;1.55;;;18.40;94.70;;;;;;4996254;28;20215;-89
2022/07/17 08:33:24;;;;;;;4.93;1.30;;;18.50;94.20;;;;;;4996307;28;20184;-88
2022/07/17 08:35:50;;;;;;;4.53;1.20;;;18.40;94.10;;;;;;4997619;28;20191;-90
2022/07/17 08:38:16;;;;;;;6.57;1.35;;;18.40;94.60;;;;;;4996109;28;20183;-87
2022/07/17 08:40:43;;;;;;;8.65;1.55;;;18.30;94.10;;;;;;4997217;28;20187;-88
2022/07/17 08:43:09;;;;;;;4.30;1.17;;;18.30;94.30;;;;;;4996336;28;20266;-87
2022/07/17 08:45:38;;;;;;;3.42;0.95;;;18.40;94.60;;;;;;4996998;28;20191;-88
2022/07/17 08:48:06;;;;;;;7.18;1.13;;;18.40;95.10;;;;;;4995851;28;20235;-86
2022/07/17 08:50:34;;;;;;;2.85;0.98;;;18.50;93.70;;;;;;4995843;28;20227;-88
2022/07/17 08:53:01;;;;;;;8.95;1.30;;;18.60;93.70;;;;;;4995480;28;20176;-87
2022/07/17 08:55:28;;;;;;;5.03;1.27;;;18.60;94.20;;;;;;4996055;28;20179;-89
2022/07/17 08:57:54;;;;;;;9.80;1.80;;;18.80;93.70;;;;;;4995859;28;20172;-87
2022/07/17 09:00:22;;;;;;;7.10;1.20;;;18.80;93.90;;;;;;4995950;28;20180;-90
2022/07/17 09:03:01;;;;;;;5.90;1.30;;;18.80;92.50;;;;;;4995906;28;20266;-90
2022/07/17 09:05:30;;;;;;;4.55;1.00;;;18.80;93.20;;;;;;4996644;28;20164;-88
2022/07/17 09:07:56;;;;;;;6.70;1.27;;;18.90;93.20;;;;;;4995363;28;20211;-90
2022/07/17 09:10:41;;;;;;;3.72;1.23;;;19.10;92.90;;;;;;4995600;28;20684;-89
2022/07/17 09:13:33;;;;;;;8.32;1.25;;;18.90;92.80;;;;;;4995778;28;20565;-88
2022/07/17 09:16:07;;;;;;;5.63;1.08;;;18.70;93.90;;;;;;4992744;28;20275;-89
2022/07/17 09:18:57;;;;;;;4.28;1.13;;;18.60;93.30;;;;;;4996688;28;20195;-88
2022/07/17 09:21:25;;;;;;;7.90;1.35;;;18.60;93.90;;;;;;4996673;28;20188;-86
2022/07/17 09:24:06;;;;;;;5.72;1.30;;;19.00;93.10;;;;;;4996308;28;20313;-88
2022/07/17 09:26:34;;;;;;;7.88;1.52;;;19.50;93.10;;;;;;4994857;28;20230;-87
2022/07/17 09:29:04;;;;;;;3.08;1.10;;;19.90;92.10;;;;;;4996508;28;20243;-87
2022/07/17 09:31:32;;;;;;;8.00;1.00;;;20.10;91.90;;;;;;4995129;28;20674;-89
2022/07/17 09:33:58;;;;;;;4.50;0.90;;;20.00;91.30;;;;;;4995192;28;20520;-88
2022/07/17 09:36:25;;;;;;;4.15;1.10;;;20.10;91.60;;;;;;4995382;28;20180;-90
2022/07/17 09:38:55;;;;;;;2.75;1.10;;;20.00;91.80;;;;;;4994243;28;20184;-87
2022/07/17 09:41:23;;;;;;;6.75;1.00;;;20.00;92.30;;;;;;5008114;28;20194;-90
2022/07/17 09:43:59;;;;;;;2.97;0.93;;;20.10;92.00;;;;;;5015805;28;20171;-90
2022/07/17 09:46:33;;;;;;;3.90;0.90;;;20.40;92.10;;;;;;5014588;28;20171;-90
2022/07/17 09:49:01;;;;;;;5.22;1.10;;;20.80;91.90;;;;;;5014110;28;20284;-89
2022/07/17 09:51:32;;;;;;;5.07;1.25;;;21.10;91.90;;;;;;5015764;28;20231;-89
2022/07/17 09:54:02;;;;;;;4.38;1.20;;;21.40;90.70;;;;;;5015352;28;20175;-89
2022/07/17 09:56:33;;;;;;;3.97;1.02;;;21.40;88.80;;;;;;5014291;28;20613;-89
2022/07/17 09:59:03;;;;;;;3.03;0.93;;;21.30;90.10;;;;;;5014263;28;20611;-89
2022/07/17 10:01:29;;;;;;;6.28;1.35;;;21.30;90.20;;;;;;5014377;28;20186;-88
2022/07/17 10:03:55;;;;;;;5.32;1.23;;;21.20;90.40;;;;;;5015315;28;20178;-88
2022/07/17 10:06:22;;;;;;;3.97;1.02;;;21.00;90.50;;;;;;5015135;28;20175;-87
2022/07/17 10:08:48;;;;;;;5.32;0.95;;;20.90;90.60;;;;;;5013765;28;20179;-89
2022/07/17 10:11:16;;;;;;;6.50;1.20;;;21.00;91.30;;;;;;5002985;28;20303;-91
2022/07/17 10:13:45;;;;;;;4.40;1.00;;;21.20;90.40;;;;;;4995485;28;20172;-90
2022/07/17 10:16:11;;;;;;;2.03;0.93;;;21.40;90.10;;;;;;4994272;28;20238;-90
2022/07/17 10:18:44;;;;;;;3.20;0.93;;;21.50;89.10;;;;;;4994147;28;20719;-88
2022/07/17 10:21:11;;;;;;;4.47;1.30;;;21.30;89.00;;;;;;4994371;28;20195;-89
2022/07/17 10:23:37;;;;;;;3.00;0.95;;;21.10;88.20;;;;;;4994110;28;20176;-90
2022/07/17 10:26:03;;;;;;;6.13;1.08;;;21.20;90.30;;;;;;4993976;28;20226;-87
2022/07/17 10:28:43;;;;;;;2.95;0.90;;;21.30;88.30;;;;;;4995337;28;20570;-88
2022/07/17 10:31:09;;;;;;;3.08;1.05;;;21.20;88.30;;;;;;4993763;28;20215;-88
2022/07/17 10:33:36;;;;;;;6.68;1.17;;;21.30;87.70;;;;;;4994968;28;20176;-89
2022/07/17 10:36:02;;;;;;;3.33;1.00;;;21.30;86.90;;;;;;4994001;28;20183;-91
2022/07/17 10:38:28;;;;;;;5.80;1.27;;;21.40;88.90;;;;;;4995134;28;20169;-89
2022/07/17 10:41:03;;;;;;;3.70;1.15;;;21.50;88.40;;;;;;4993986;28;20192;-89
2022/07/17 10:43:44;;;;;;;3.53;1.20;;;21.60;89.90;;;;;;4993630;28;20186;-88
2022/07/17 10:46:09;;;;;;;3.83;1.00;;;21.60;88.90;;;;;;4995293;28;20595;-88
2022/07/17 10:48:35;;;;;;;4.43;1.40;;;21.80;86.90;;;;;;4994135;28;20232;-87
2022/07/17 10:51:01;;;;;;;5.03;1.13;;;21.50;86.90;;;;;;4992919;28;20223;-87
2022/07/17 10:53:32;;;;;;;4.68;1.33;;;21.60;88.80;;;;;;4993474;28;20279;-89
2022/07/17 10:56:04;;;;;;;4.50;1.10;;;21.70;87.20;;;;;;4994794;28;20184;-89
2022/07/17 10:58:37;;;;;;;6.35;1.20;;;21.80;89.80;;;;;;4994019;28;20179;-91
2022/07/17 11:01:17;;;;;;;5.10;1.10;;;22.00;89.80;;;;;;4993945;28;20259;-90
2022/07/17 11:03:44;;;;;;;6.85;1.42;;;22.20;88.50;;;;;;4994796;28;20183;-87
2022/07/17 11:06:11;;;;;;;6.22;1.00;;;22.30;86.30;;;;;;4992985;28;20183;-86
2022/07/17 11:09:02;;;;;;;5.43;1.50;;;22.30;85.30;;;;;;4994485;28;20156;-90
2022/07/17 11:11:50;;;;;;;3.33;0.90;;;22.20;86.60;;;;;;4994568;28;20203;-89
2022/07/17 11:14:18;;;;;;;5.90;1.30;;;22.40;88.60;;;;;;4993452;28;20246;-90
2022/07/17 11:17:01;;;;;;;4.80;1.13;;;22.40;86.30;;;;;;4993488;28;20188;-86
2022/07/17 11:19:39;;;;;;;7.03;1.40;;;22.40;87.70;;;;;;4993424;28;20274;-87
2022/07/17 11:22:10;;;;;;;5.85;1.13;;;22.60;85.90;;;;;;4994606;28;20250;-88
2022/07/17 11:24:47;;;;;;;6.55;1.20;;;22.60;86.10;;;;;;4994783;28;20191;-87
2022/07/17 11:27:34;;;;;;;6.32;0.90;;;22.60;84.30;;;;;;4993097;28;20214;-88
2022/07/17 11:30:02;;;;;;;4.22;1.10;;;22.60;84.40;;;;;;4994262;28;20541;-86
2022/07/17 11:32:35;;;;;;;8.77;2.20;;;22.40;85.20;;;;;;4994335;28;20607;-88
2022/07/17 11:35:00;;;;;;;3.90;1.20;;;22.50;87.00;;;;;;4994305;28;20195;-87
2022/07/17 11:37:30;;;;;;;4.03;0.70;;;22.70;87.00;;;;;;4994162;28;20180;-86
2022/07/17 11:39:57;;;;;;;4.50;1.17;;;22.80;85.20;;;;;;4994340;28;20619;-85
2022/07/17 11:42:23;;;;;;;5.28;1.08;;;22.80;84.50;;;;;;4993255;28;20192;-86
2022/07/17 11:44:51;;;;;;;3.08;0.70;;;22.80;86.20;;;;;;4993335;28;20276;-87
2022/07/17 11:47:28;;;;;;;2.78;1.13;;;22.90;84.90;;;;;;4993295;28;20203;-86
2022/07/17 11:50:09;;;;;;;5.70;1.00;;;23.00;85.30;;;;;;4993282;28;20207;-85
2022/07/17 11:52:50;;;;;;;4.05;1.20;;;23.30;86.10;;;;;;4992401;28;20247;-85
2022/07/17 11:55:17;;;;;;;3.63;1.17;;;23.60;85.20;;;;;;4992345;28;20203;-85
2022/07/17 11:57:48;;;;;;;4.78;1.10;;;23.80;82.30;;;;;;4992368;28;20603;-86
2022/07/17 12:00:19;;;;;;;5.38;1.00;;;23.80;82.90;;;;;;4992856;28;20186;-85
2022/07/17 12:02:45;;;;;;;1.83;1.00;;;23.70;81.90;;;;;;4996606;28;20176;-85
2022/07/17 12:05:12;;;;;;;4.88;1.10;;;23.90;81.20;;;;;;4996570;28;20274;-88
2022/07/17 12:07:46;;;;;;;5.07;1.08;;;23.90;82.60;;;;;;4996326;28;20499;-86
2022/07/17 12:10:24;;;;;;;3.53;1.00;;;23.70;81.10;;;;;;4996073;28;20557;-87
2022/07/17 12:13:04;;;;;;;4.80;1.17;;;23.50;81.70;;;;;;4996506;28;20168;-88
2022/07/17 12:15:43;;;;;;;3.92;0.93;;;23.60;81.50;;;;;;4995416;28;20640;-89
2022/07/17 12:18:29;;;;;;;5.95;0.90;;;23.70;83.80;;;;;;4996523;28;20609;-87
2022/07/17 12:21:02;;;;;;;2.70;0.88;;;23.80;82.20;;;;;;4995628;28;20191;-83
2022/07/17 12:23:36;;;;;;;3.03;0.90;;;24.00;81.00;;;;;;4997106;28;20164;-85
2022/07/17 12:26:16;;;;;;;2.80;1.20;;;23.90;80.60;;;;;;4995951;28;20187;-84
2022/07/17 12:28:43;;;;;;;5.22;1.20;;;24.00;81.60;;;;;;4996257;28;20182;-84
2022/07/17 12:31:10;;;;;;;3.40;0.90;;;24.20;81.40;;;;;;4995949;28;20216;-88
2022/07/17 12:33:35;;;;;;;3.90;0.98;;;24.30;80.70;;;;;;4995787;28;20646;-86
2022/07/17 12:36:01;;;;;;;4.35;1.30;;;24.20;78.00;;;;;;4976746;28;20184;-87
2022/07/17 12:38:27;;;;;;;3.10;0.80;;;24.10;78.40;;;;;;4976467;28;20183;-86
2022/07/17 12:40:53;;;;;;;2.40;0.90;;;24.00;79.30;;;;;;4985346;28;20639;-86
2022/07/17 12:43:19;;;;;;;2.92;0.90;;;24.10;79.80;;;;;;4996034;28;20187;-87
2022/07/17 12:45:44;;;;;;;1.52;0.70;;;24.20;78.20;;;;;;4994902;28;20176;-85
2022/07/17 12:48:11;;;;;;;4.13;0.80;;;24.20;78.40;;;;;;4996682;28;20223;-87
2022/07/17 12:50:37;;;;;;;3.88;0.80;;;24.20;78.80;;;;;;4996791;28;20215;-85